<?xml version='1.0' encoding='utf-8'?>
<gpx xmlns="http://www.topografix.com/GPX/1/1" creator="HOLUX ezTour Plus" version="1.1">
<metadata>
<link href="http://www.holux.com"><text>HOLUX Technology, Inc.</text></link>
<time>2012-08-01T18:49:41Z</time></metadata>
<trk>
<name>raw6a</name>
<trkseg>
<trkpt lat="63.990535736" lon="-19.062469482">
<ele>597.7</ele>
<time>2012-07-23T14:56:37Z</time>
<speed>0.960000</speed>
<extensions>
<speed>1.0</speed>
<temp>0.00</temp>
<bpm>0</bpm>
<rpm>0.00</rpm>
</extensions>
</trkpt>
<trkpt lat="63.990840912" lon="-19.062393188">
<ele>590.6</ele>
<time>2012-07-23T14:56:47Z</time>
<speed>1.230000</speed>
<extensions>
<speed>1.2</speed>
<temp>0.00</temp>
<bpm>0</bpm>
<rpm>0.00</rpm>
</extensions>
</trkpt>
<trkpt lat="63.990871429" lon="-19.062633514">
<ele>590.9</ele>
<time>2012-07-23T14:56:52Z</time>
<speed>0.930000</speed>
<extensions>
<speed>0.9</speed>
<temp>0.00</temp>
<bpm>0</bpm>
<rpm>0.00</rpm>
</extensions>
</trkpt>
<trkpt lat="63.990764618" lon="-19.062984467">
<ele>593.2</ele>
<time>2012-07-23T14:57:07Z</time>
<speed>1.280000</speed>
<extensions>
<speed>1.3</speed>
<temp>0.00</temp>
<bpm>0</bpm>
<rpm>0.00</rpm>
</extensions>
</trkpt>
<trkpt lat="63.990871429" lon="-19.063858032">
<ele>600.2</ele>
<time>2012-07-23T14:58:17Z</time>
<speed>0.780000</speed>
<extensions>
<speed>0.8</speed>
<temp>0.00</temp>
<bpm>0</bpm>
<rpm>0.00</rpm>
</extensions>
</trkpt>
<trkpt lat="63.990600586" lon="-19.064748764">
<ele>610.0</ele>
<time>2012-07-23T14:59:22Z</time>
<speed>1.430000</speed>
<extensions>
<speed>1.4</speed>
<temp>0.00</temp>
<bpm>0</bpm>
<rpm>0.00</rpm>
</extensions>
</trkpt>
<trkpt lat="63.991039276" lon="-19.065135956">
<ele>613.0</ele>
<time>2012-07-23T15:01:17Z</time>
<speed>0.020000</speed>
<extensions>
<speed>0.0</speed>
<temp>0.00</temp>
<bpm>0</bpm>
<rpm>0.00</rpm>
</extensions>
</trkpt>
<trkpt lat="63.990573883" lon="-19.065580368">
<ele>622.6</ele>
<time>2012-07-23T15:02:22Z</time>
<speed>0.950000</speed>
<extensions>
<speed>1.0</speed>
<temp>0.00</temp>
<bpm>0</bpm>
<rpm>0.00</rpm>
</extensions>
</trkpt>
<trkpt lat="63.990833282" lon="-19.068407059">
<ele>626.3</ele>
<time>2012-07-23T15:04:52Z</time>
<speed>1.020000</speed>
<extensions>
<speed>1.0</speed>
<temp>0.00</temp>
<bpm>0</bpm>
<rpm>0.00</rpm>
</extensions>
</trkpt>
<trkpt lat="63.990345001" lon="-19.071321487">
<ele>631.2</ele>
<time>2012-07-23T15:07:02Z</time>
<speed>0.220000</speed>
<extensions>
<speed>0.2</speed>
<temp>0.00</temp>
<bpm>0</bpm>
<rpm>0.00</rpm>
</extensions>
</trkpt>
<trkpt lat="63.990406036" lon="-19.072546005">
<ele>632.3</ele>
<time>2012-07-23T15:07:52Z</time>
<speed>1.340000</speed>
<extensions>
<speed>1.3</speed>
<temp>0.00</temp>
<bpm>0</bpm>
<rpm>0.00</rpm>
</extensions>
</trkpt>
<trkpt lat="63.990936279" lon="-19.074239731">
<ele>635.3</ele>
<time>2012-07-23T15:09:22Z</time>
<speed>1.190000</speed>
<extensions>
<speed>1.2</speed>
<temp>0.00</temp>
<bpm>0</bpm>
<rpm>0.00</rpm>
</extensions>
</trkpt>
<trkpt lat="63.990638733" lon="-19.075206757">
<ele>636.8</ele>
<time>2012-07-23T15:10:47Z</time>
<speed>1.070000</speed>
<extensions>
<speed>1.1</speed>
<temp>0.00</temp>
<bpm>0</bpm>
<rpm>0.00</rpm>
</extensions>
</trkpt>
<trkpt lat="63.990562439" lon="-19.076070786">
<ele>637.9</ele>
<time>2012-07-23T15:11:22Z</time>
<speed>1.070000</speed>
<extensions>
<speed>1.1</speed>
<temp>0.00</temp>
<bpm>0</bpm>
<rpm>0.00</rpm>
</extensions>
</trkpt>
<trkpt lat="63.990722656" lon="-19.077194214">
<ele>637.1</ele>
<time>2012-07-23T15:12:22Z</time>
<speed>1.200000</speed>
<extensions>
<speed>1.2</speed>
<temp>0.00</temp>
<bpm>0</bpm>
<rpm>0.00</rpm>
</extensions>
</trkpt>
<trkpt lat="63.990482330" lon="-19.079959869">
<ele>636.7</ele>
<time>2012-07-23T15:14:22Z</time>
<speed>1.360000</speed>
<extensions>
<speed>1.4</speed>
<temp>0.00</temp>
<bpm>0</bpm>
<rpm>0.00</rpm>
</extensions>
</trkpt>
<trkpt lat="63.990653992" lon="-19.081220627">
<ele>636.2</ele>
<time>2012-07-23T15:15:27Z</time>
<speed>0.980000</speed>
<extensions>
<speed>1.0</speed>
<temp>0.00</temp>
<bpm>0</bpm>
<rpm>0.00</rpm>
</extensions>
</trkpt>
<trkpt lat="63.990631104" lon="-19.084165573">
<ele>630.1</ele>
<time>2012-07-23T15:17:17Z</time>
<speed>1.010000</speed>
<extensions>
<speed>1.0</speed>
<temp>0.00</temp>
<bpm>0</bpm>
<rpm>0.00</rpm>
</extensions>
</trkpt>
<trkpt lat="63.989940643" lon="-19.085807800">
<ele>619.7</ele>
<time>2012-07-23T15:18:42Z</time>
<speed>1.080000</speed>
<extensions>
<speed>1.1</speed>
<temp>0.00</temp>
<bpm>0</bpm>
<rpm>0.00</rpm>
</extensions>
</trkpt>
<trkpt lat="63.988819122" lon="-19.085870743">
<ele>624.4</ele>
<time>2012-07-23T15:20:37Z</time>
<speed>0.310000</speed>
<extensions>
<speed>0.3</speed>
<temp>0.00</temp>
<bpm>0</bpm>
<rpm>0.00</rpm>
</extensions>
</trkpt>
<trkpt lat="63.988830566" lon="-19.087856293">
<ele>619.4</ele>
<time>2012-07-23T15:21:57Z</time>
<speed>1.390000</speed>
<extensions>
<speed>1.4</speed>
<temp>0.00</temp>
<bpm>0</bpm>
<rpm>0.00</rpm>
</extensions>
</trkpt>
<trkpt lat="63.989151001" lon="-19.089574814">
<ele>621.6</ele>
<time>2012-07-23T15:23:12Z</time>
<speed>0.130000</speed>
<extensions>
<speed>0.1</speed>
<temp>0.00</temp>
<bpm>0</bpm>
<rpm>0.00</rpm>
</extensions>
</trkpt>
<trkpt lat="63.989994049" lon="-19.090219498">
<ele>621.5</ele>
<time>2012-07-23T15:24:37Z</time>
<speed>1.320000</speed>
<extensions>
<speed>1.3</speed>
<temp>0.00</temp>
<bpm>0</bpm>
<rpm>0.00</rpm>
</extensions>
</trkpt>
<trkpt lat="63.990127563" lon="-19.090669632">
<ele>625.0</ele>
<time>2012-07-23T15:25:07Z</time>
<speed>1.320000</speed>
<extensions>
<speed>1.3</speed>
<temp>0.00</temp>
<bpm>0</bpm>
<rpm>0.00</rpm>
</extensions>
</trkpt>
<trkpt lat="63.990158081" lon="-19.091777802">
<ele>625.4</ele>
<time>2012-07-23T15:25:52Z</time>
<speed>1.290000</speed>
<extensions>
<speed>1.3</speed>
<temp>0.00</temp>
<bpm>0</bpm>
<rpm>0.00</rpm>
</extensions>
</trkpt>
<trkpt lat="63.989868164" lon="-19.092866898">
<ele>622.7</ele>
<time>2012-07-23T15:26:52Z</time>
<extensions>
<speed>0.0</speed>
<temp>0.00</temp>
<bpm>0</bpm>
<rpm>0.00</rpm>
</extensions>
</trkpt>
<trkpt lat="63.990276337" lon="-19.093763351">
<ele>622.9</ele>
<time>2012-07-23T15:28:12Z</time>
<speed>1.160000</speed>
<extensions>
<speed>1.2</speed>
<temp>0.00</temp>
<bpm>0</bpm>
<rpm>0.00</rpm>
</extensions>
</trkpt>
<trkpt lat="63.990585327" lon="-19.097869873">
<ele>626.4</ele>
<time>2012-07-23T15:31:47Z</time>
<speed>0.170000</speed>
<extensions>
<speed>0.2</speed>
<temp>0.00</temp>
<bpm>0</bpm>
<rpm>0.00</rpm>
</extensions>
</trkpt>
<trkpt lat="63.991775513" lon="-19.099933624">
<ele>624.1</ele>
<time>2012-07-23T15:34:17Z</time>
<speed>1.220000</speed>
<extensions>
<speed>1.2</speed>
<temp>0.00</temp>
<bpm>0</bpm>
<rpm>0.00</rpm>
</extensions>
</trkpt>
<trkpt lat="63.992485046" lon="-19.103271484">
<ele>626.1</ele>
<time>2012-07-23T15:38:17Z</time>
<speed>1.380000</speed>
<extensions>
<speed>1.4</speed>
<temp>0.00</temp>
<bpm>0</bpm>
<rpm>0.00</rpm>
</extensions>
</trkpt>
<trkpt lat="63.993000031" lon="-19.104824066">
<ele>626.2</ele>
<time>2012-07-23T15:39:42Z</time>
<speed>1.220000</speed>
<extensions>
<speed>1.2</speed>
<temp>0.00</temp>
<bpm>0</bpm>
<rpm>0.00</rpm>
</extensions>
</trkpt>
<trkpt lat="63.993015289" lon="-19.105340958">
<ele>626.5</ele>
<time>2012-07-23T15:40:47Z</time>
<speed>0.740000</speed>
<extensions>
<speed>0.7</speed>
<temp>0.00</temp>
<bpm>0</bpm>
<rpm>0.00</rpm>
</extensions>
</trkpt>
<trkpt lat="63.993602753" lon="-19.103694916">
<ele>625.3</ele>
<time>2012-07-23T15:43:42Z</time>
<speed>0.650000</speed>
<extensions>
<speed>0.6</speed>
<temp>0.00</temp>
<bpm>0</bpm>
<rpm>0.00</rpm>
</extensions>
</trkpt>
<trkpt lat="63.993717194" lon="-19.103923798">
<ele>625.5</ele>
<time>2012-07-23T15:43:52Z</time>
<speed>1.130000</speed>
<extensions>
<speed>1.1</speed>
<temp>0.00</temp>
<bpm>0</bpm>
<rpm>0.00</rpm>
</extensions>
</trkpt>
<trkpt lat="63.993350983" lon="-19.105258942">
<ele>626.1</ele>
<time>2012-07-23T15:44:57Z</time>
<speed>1.130000</speed>
<extensions>
<speed>1.1</speed>
<temp>0.00</temp>
<bpm>0</bpm>
<rpm>0.00</rpm>
</extensions>
</trkpt>
<trkpt lat="63.993511200" lon="-19.105365753">
<ele>625.9</ele>
<time>2012-07-23T15:45:52Z</time>
<speed>0.040000</speed>
<extensions>
<speed>0.0</speed>
<temp>0.00</temp>
<bpm>0</bpm>
<rpm>0.00</rpm>
</extensions>
</trkpt>
<trkpt lat="63.993354797" lon="-19.105955124">
<ele>626.3</ele>
<time>2012-07-23T15:47:12Z</time>
<speed>1.220000</speed>
<extensions>
<speed>1.2</speed>
<temp>0.00</temp>
<bpm>0</bpm>
<rpm>0.00</rpm>
</extensions>
</trkpt>
<trkpt lat="63.993465424" lon="-19.107084274">
<ele>627.0</ele>
<time>2012-07-23T15:48:12Z</time>
<speed>0.960000</speed>
<extensions>
<speed>1.0</speed>
<temp>0.00</temp>
<bpm>0</bpm>
<rpm>0.00</rpm>
</extensions>
</trkpt>
<trkpt lat="63.994033813" lon="-19.108060837">
<ele>627.7</ele>
<time>2012-07-23T15:49:27Z</time>
<speed>0.120000</speed>
<extensions>
<speed>0.1</speed>
<temp>0.00</temp>
<bpm>0</bpm>
<rpm>0.00</rpm>
</extensions>
</trkpt>
<trkpt lat="63.994564056" lon="-19.109943390">
<ele>646.0</ele>
<time>2012-07-23T15:52:42Z</time>
<speed>0.810000</speed>
<extensions>
<speed>0.8</speed>
<temp>0.00</temp>
<bpm>0</bpm>
<rpm>0.00</rpm>
</extensions>
</trkpt>
<trkpt lat="63.994892120" lon="-19.112266541">
<ele>684.7</ele>
<time>2012-07-23T15:55:57Z</time>
<speed>0.710000</speed>
<extensions>
<speed>0.7</speed>
<temp>0.00</temp>
<bpm>0</bpm>
<rpm>0.00</rpm>
</extensions>
</trkpt>
<trkpt lat="63.995391846" lon="-19.113891602">
<ele>716.2</ele>
<time>2012-07-23T15:58:07Z</time>
<speed>0.990000</speed>
<extensions>
<speed>1.0</speed>
<temp>0.00</temp>
<bpm>0</bpm>
<rpm>0.00</rpm>
</extensions>
</trkpt>
<trkpt lat="63.996753693" lon="-19.116960526">
<ele>751.8</ele>
<time>2012-07-23T16:01:57Z</time>
<speed>1.130000</speed>
<extensions>
<speed>1.1</speed>
<temp>0.00</temp>
<bpm>0</bpm>
<rpm>0.00</rpm>
</extensions>
</trkpt>
<trkpt lat="63.997222900" lon="-19.116983414">
<ele>764.0</ele>
<time>2012-07-23T16:02:42Z</time>
<speed>1.200000</speed>
<extensions>
<speed>1.2</speed>
<temp>0.00</temp>
<bpm>0</bpm>
<rpm>0.00</rpm>
</extensions>
</trkpt>
<trkpt lat="63.997509003" lon="-19.116548538">
<ele>765.0</ele>
<time>2012-07-23T16:05:52Z</time>
<speed>0.130000</speed>
<extensions>
<speed>0.1</speed>
<temp>0.00</temp>
<bpm>0</bpm>
<rpm>0.00</rpm>
</extensions>
</trkpt>
<trkpt lat="63.997161865" lon="-19.117046356">
<ele>763.0</ele>
<time>2012-07-23T16:07:37Z</time>
<speed>1.060000</speed>
<extensions>
<speed>1.1</speed>
<temp>0.00</temp>
<bpm>0</bpm>
<rpm>0.00</rpm>
</extensions>
</trkpt>
<trkpt lat="63.996784210" lon="-19.116998672">
<ele>752.8</ele>
<time>2012-07-23T16:08:17Z</time>
<speed>1.370000</speed>
<extensions>
<speed>1.4</speed>
<temp>0.00</temp>
<bpm>0</bpm>
<rpm>0.00</rpm>
</extensions>
</trkpt>
<trkpt lat="63.996482849" lon="-19.116399765">
<ele>744.0</ele>
<time>2012-07-23T16:09:07Z</time>
<speed>0.310000</speed>
<extensions>
<speed>0.3</speed>
<temp>0.00</temp>
<bpm>0</bpm>
<rpm>0.00</rpm>
</extensions>
</trkpt>
<trkpt lat="63.996967316" lon="-19.117076874">
<ele>758.4</ele>
<time>2012-07-23T16:13:12Z</time>
<speed>1.360000</speed>
<extensions>
<speed>1.4</speed>
<temp>0.00</temp>
<bpm>0</bpm>
<rpm>0.00</rpm>
</extensions>
</trkpt>
<trkpt lat="63.997547150" lon="-19.116559982">
<ele>764.3</ele>
<time>2012-07-23T16:14:12Z</time>
<speed>0.020000</speed>
<extensions>
<speed>0.0</speed>
<temp>0.00</temp>
<bpm>0</bpm>
<rpm>0.00</rpm>
</extensions>
</trkpt>
<trkpt lat="63.997207642" lon="-19.116247177">
<ele>768.1</ele>
<time>2012-07-23T16:15:42Z</time>
<speed>1.120000</speed>
<extensions>
<speed>1.1</speed>
<temp>0.00</temp>
<bpm>0</bpm>
<rpm>0.00</rpm>
</extensions>
</trkpt>
<trkpt lat="63.997245789" lon="-19.115533829">
<ele>770.1</ele>
<time>2012-07-23T16:16:42Z</time>
<speed>0.180000</speed>
<extensions>
<speed>0.2</speed>
<temp>0.00</temp>
<bpm>0</bpm>
<rpm>0.00</rpm>
</extensions>
</trkpt>
<trkpt lat="63.998153687" lon="-19.112628937">
<ele>782.8</ele>
<time>2012-07-23T16:19:32Z</time>
<speed>1.160000</speed>
<extensions>
<speed>1.2</speed>
<temp>0.00</temp>
<bpm>0</bpm>
<rpm>0.00</rpm>
</extensions>
</trkpt>
<trkpt lat="63.998943329" lon="-19.111539841">
<ele>781.4</ele>
<time>2012-07-23T16:21:07Z</time>
<speed>0.560000</speed>
<extensions>
<speed>0.6</speed>
<temp>0.00</temp>
<bpm>0</bpm>
<rpm>0.00</rpm>
</extensions>
</trkpt>
<trkpt lat="63.999996185" lon="-19.111759186">
<ele>813.9</ele>
<time>2012-07-23T16:26:07Z</time>
<speed>0.710000</speed>
<extensions>
<speed>0.7</speed>
<temp>0.00</temp>
<bpm>0</bpm>
<rpm>0.00</rpm>
</extensions>
</trkpt>
<trkpt lat="64.000221252" lon="-19.111408234">
<ele>823.6</ele>
<time>2012-07-23T16:27:07Z</time>
<speed>0.740000</speed>
<extensions>
<speed>0.7</speed>
<temp>0.00</temp>
<bpm>0</bpm>
<rpm>0.00</rpm>
</extensions>
</trkpt>
<trkpt lat="64.001159668" lon="-19.111408234">
<ele>850.6</ele>
<time>2012-07-23T16:29:27Z</time>
<speed>0.110000</speed>
<extensions>
<speed>0.1</speed>
<temp>0.00</temp>
<bpm>0</bpm>
<rpm>0.00</rpm>
</extensions>
</trkpt>
<trkpt lat="64.001632690" lon="-19.109758377">
<ele>856.2</ele>
<time>2012-07-23T16:33:07Z</time>
<speed>0.560000</speed>
<extensions>
<speed>0.6</speed>
<temp>0.00</temp>
<bpm>0</bpm>
<rpm>0.00</rpm>
</extensions>
</trkpt>
<trkpt lat="64.001907349" lon="-19.107784271">
<ele>871.8</ele>
<time>2012-07-23T16:34:52Z</time>
<speed>0.740000</speed>
<extensions>
<speed>0.7</speed>
<temp>0.00</temp>
<bpm>0</bpm>
<rpm>0.00</rpm>
</extensions>
</trkpt>
<trkpt lat="64.001518250" lon="-19.104291916">
<ele>900.1</ele>
<time>2012-07-23T16:38:32Z</time>
<speed>1.270000</speed>
<extensions>
<speed>1.3</speed>
<temp>0.00</temp>
<bpm>0</bpm>
<rpm>0.00</rpm>
</extensions>
</trkpt>
<trkpt lat="64.001800537" lon="-19.102361679">
<ele>911.7</ele>
<time>2012-07-23T16:39:57Z</time>
<speed>0.990000</speed>
<extensions>
<speed>1.0</speed>
<temp>0.00</temp>
<bpm>0</bpm>
<rpm>0.00</rpm>
</extensions>
</trkpt>
<trkpt lat="64.001625061" lon="-19.100900650">
<ele>898.5</ele>
<time>2012-07-23T16:42:07Z</time>
<speed>0.240000</speed>
<extensions>
<speed>0.2</speed>
<temp>0.00</temp>
<bpm>0</bpm>
<rpm>0.00</rpm>
</extensions>
</trkpt>
<trkpt lat="64.001998901" lon="-19.098464966">
<ele>869.1</ele>
<time>2012-07-23T16:45:12Z</time>
<speed>0.800000</speed>
<extensions>
<speed>0.8</speed>
<temp>0.00</temp>
<bpm>0</bpm>
<rpm>0.00</rpm>
</extensions>
</trkpt>
<trkpt lat="64.001983643" lon="-19.096340179">
<ele>866.2</ele>
<time>2012-07-23T16:46:47Z</time>
<speed>1.440000</speed>
<extensions>
<speed>1.4</speed>
<temp>0.00</temp>
<bpm>0</bpm>
<rpm>0.00</rpm>
</extensions>
</trkpt>
<trkpt lat="64.001747131" lon="-19.095445633">
<ele>871.3</ele>
<time>2012-07-23T16:47:27Z</time>
<speed>1.210000</speed>
<extensions>
<speed>1.2</speed>
<temp>0.00</temp>
<bpm>0</bpm>
<rpm>0.00</rpm>
</extensions>
</trkpt>
<trkpt lat="64.000762939" lon="-19.094207764">
<ele>868.5</ele>
<time>2012-07-23T16:49:02Z</time>
<speed>1.320000</speed>
<extensions>
<speed>1.3</speed>
<temp>0.00</temp>
<bpm>0</bpm>
<rpm>0.00</rpm>
</extensions>
</trkpt>
<trkpt lat="64.000373840" lon="-19.093111038">
<ele>861.7</ele>
<time>2012-07-23T16:50:02Z</time>
<speed>1.350000</speed>
<extensions>
<speed>1.4</speed>
<temp>0.00</temp>
<bpm>0</bpm>
<rpm>0.00</rpm>
</extensions>
</trkpt>
<trkpt lat="64.000251770" lon="-19.086952209">
<ele>875.7</ele>
<time>2012-07-23T16:54:37Z</time>
<speed>1.140000</speed>
<extensions>
<speed>1.1</speed>
<temp>0.00</temp>
<bpm>0</bpm>
<rpm>0.00</rpm>
</extensions>
</trkpt>
<trkpt lat="64.000152588" lon="-19.086748123">
<ele>873.1</ele>
<time>2012-07-23T16:55:02Z</time>
<speed>0.050000</speed>
<extensions>
<speed>0.1</speed>
<temp>0.00</temp>
<bpm>0</bpm>
<rpm>0.00</rpm>
</extensions>
</trkpt>
<trkpt lat="64.000297546" lon="-19.085563660">
<ele>878.7</ele>
<time>2012-07-23T16:55:57Z</time>
<speed>1.010000</speed>
<extensions>
<speed>1.0</speed>
<temp>0.00</temp>
<bpm>0</bpm>
<rpm>0.00</rpm>
</extensions>
</trkpt>
<trkpt lat="63.999847412" lon="-19.082757950">
<ele>877.8</ele>
<time>2012-07-23T16:59:07Z</time>
<speed>0.330000</speed>
<extensions>
<speed>0.3</speed>
<temp>0.00</temp>
<bpm>0</bpm>
<rpm>0.00</rpm>
</extensions>
</trkpt>
<trkpt lat="63.999801636" lon="-19.081098557">
<ele>869.9</ele>
<time>2012-07-23T17:00:37Z</time>
<speed>0.650000</speed>
<extensions>
<speed>0.6</speed>
<temp>0.00</temp>
<bpm>0</bpm>
<rpm>0.00</rpm>
</extensions>
</trkpt>
<trkpt lat="63.999317169" lon="-19.080629349">
<ele>851.2</ele>
<time>2012-07-23T17:01:22Z</time>
<speed>0.970000</speed>
<extensions>
<speed>1.0</speed>
<temp>0.00</temp>
<bpm>0</bpm>
<rpm>0.00</rpm>
</extensions>
</trkpt>
<trkpt lat="63.999294281" lon="-19.078458786">
<ele>851.9</ele>
<time>2012-07-23T17:02:57Z</time>
<speed>1.490000</speed>
<extensions>
<speed>1.5</speed>
<temp>0.00</temp>
<bpm>0</bpm>
<rpm>0.00</rpm>
</extensions>
</trkpt>
<trkpt lat="63.999095917" lon="-19.077999115">
<ele>847.3</ele>
<time>2012-07-23T17:03:17Z</time>
<speed>1.480000</speed>
<extensions>
<speed>1.5</speed>
<temp>0.00</temp>
<bpm>0</bpm>
<rpm>0.00</rpm>
</extensions>
</trkpt>
<trkpt lat="63.998924255" lon="-19.076684952">
<ele>840.9</ele>
<time>2012-07-23T17:04:17Z</time>
<speed>1.110000</speed>
<extensions>
<speed>1.1</speed>
<temp>0.00</temp>
<bpm>0</bpm>
<rpm>0.00</rpm>
</extensions>
</trkpt>
<trkpt lat="63.998859406" lon="-19.074287415">
<ele>834.9</ele>
<time>2012-07-23T17:06:17Z</time>
<speed>0.700000</speed>
<extensions>
<speed>0.7</speed>
<temp>0.00</temp>
<bpm>0</bpm>
<rpm>0.00</rpm>
</extensions>
</trkpt>
<trkpt lat="63.998657227" lon="-19.074064255">
<ele>825.1</ele>
<time>2012-07-23T17:07:17Z</time>
<speed>0.460000</speed>
<extensions>
<speed>0.5</speed>
<temp>0.00</temp>
<bpm>0</bpm>
<rpm>0.00</rpm>
</extensions>
</trkpt>
<trkpt lat="63.998725891" lon="-19.072832108">
<ele>811.0</ele>
<time>2012-07-23T17:08:52Z</time>
<speed>1.080000</speed>
<extensions>
<speed>1.1</speed>
<temp>0.00</temp>
<bpm>0</bpm>
<rpm>0.00</rpm>
</extensions>
</trkpt>
<trkpt lat="63.999046326" lon="-19.071935654">
<ele>796.1</ele>
<time>2012-07-23T17:10:02Z</time>
<speed>0.840000</speed>
<extensions>
<speed>0.8</speed>
<temp>0.00</temp>
<bpm>0</bpm>
<rpm>0.00</rpm>
</extensions>
</trkpt>
<trkpt lat="63.998962402" lon="-19.071435928">
<ele>787.7</ele>
<time>2012-07-23T17:10:27Z</time>
<speed>0.940000</speed>
<extensions>
<speed>0.9</speed>
<temp>0.00</temp>
<bpm>0</bpm>
<rpm>0.00</rpm>
</extensions>
</trkpt>
<trkpt lat="63.999095917" lon="-19.070716858">
<ele>778.4</ele>
<time>2012-07-23T17:11:17Z</time>
<speed>0.520000</speed>
<extensions>
<speed>0.5</speed>
<temp>0.00</temp>
<bpm>0</bpm>
<rpm>0.00</rpm>
</extensions>
</trkpt>
<trkpt lat="63.998962402" lon="-19.070051193">
<ele>762.6</ele>
<time>2012-07-23T17:12:27Z</time>
<speed>0.730000</speed>
<extensions>
<speed>0.7</speed>
<temp>0.00</temp>
<bpm>0</bpm>
<rpm>0.00</rpm>
</extensions>
</trkpt>
<trkpt lat="63.998550415" lon="-19.069641113">
<ele>747.3</ele>
<time>2012-07-23T17:13:27Z</time>
<speed>0.330000</speed>
<extensions>
<speed>0.3</speed>
<temp>0.00</temp>
<bpm>0</bpm>
<rpm>0.00</rpm>
</extensions>
</trkpt>
<trkpt lat="63.998081207" lon="-19.068454742">
<ele>716.7</ele>
<time>2012-07-23T17:16:07Z</time>
<speed>0.600000</speed>
<extensions>
<speed>0.6</speed>
<temp>0.00</temp>
<bpm>0</bpm>
<rpm>0.00</rpm>
</extensions>
</trkpt>
<trkpt lat="63.997940063" lon="-19.067037582">
<ele>701.5</ele>
<time>2012-07-23T17:18:02Z</time>
<speed>0.680000</speed>
<extensions>
<speed>0.7</speed>
<temp>0.00</temp>
<bpm>0</bpm>
<rpm>0.00</rpm>
</extensions>
</trkpt>
<trkpt lat="63.997436523" lon="-19.064897537">
<ele>695.2</ele>
<time>2012-07-23T17:19:37Z</time>
<speed>1.570000</speed>
<extensions>
<speed>1.6</speed>
<temp>0.00</temp>
<bpm>0</bpm>
<rpm>0.00</rpm>
</extensions>
</trkpt>
<trkpt lat="63.996223450" lon="-19.064050674">
<ele>693.5</ele>
<time>2012-07-23T17:21:12Z</time>
<speed>1.340000</speed>
<extensions>
<speed>1.3</speed>
<temp>0.00</temp>
<bpm>0</bpm>
<rpm>0.00</rpm>
</extensions>
</trkpt>
<trkpt lat="63.995426178" lon="-19.062652588">
<ele>660.4</ele>
<time>2012-07-23T17:24:07Z</time>
<speed>0.840000</speed>
<extensions>
<speed>0.8</speed>
<temp>0.00</temp>
<bpm>0</bpm>
<rpm>0.00</rpm>
</extensions>
</trkpt>
<trkpt lat="63.995193481" lon="-19.062639236">
<ele>648.8</ele>
<time>2012-07-23T17:24:57Z</time>
<speed>0.510000</speed>
<extensions>
<speed>0.5</speed>
<temp>0.00</temp>
<bpm>0</bpm>
<rpm>0.00</rpm>
</extensions>
</trkpt>
<trkpt lat="63.995201111" lon="-19.062023163">
<ele>635.6</ele>
<time>2012-07-23T17:26:02Z</time>
<speed>0.460000</speed>
<extensions>
<speed>0.5</speed>
<temp>0.00</temp>
<bpm>0</bpm>
<rpm>0.00</rpm>
</extensions>
</trkpt>
<trkpt lat="63.994724274" lon="-19.061777115">
<ele>604.5</ele>
<time>2012-07-23T17:27:32Z</time>
<speed>0.550000</speed>
<extensions>
<speed>0.6</speed>
<temp>0.00</temp>
<bpm>0</bpm>
<rpm>0.00</rpm>
</extensions>
</trkpt>
<trkpt lat="63.994567871" lon="-19.061136246">
<ele>593.5</ele>
<time>2012-07-23T17:29:07Z</time>
<speed>0.650000</speed>
<extensions>
<speed>0.6</speed>
<temp>0.00</temp>
<bpm>0</bpm>
<rpm>0.00</rpm>
</extensions>
</trkpt>
<trkpt lat="63.993721008" lon="-19.060625076">
<ele>587.5</ele>
<time>2012-07-23T17:31:07Z</time>
<speed>0.850000</speed>
<extensions>
<speed>0.8</speed>
<temp>0.00</temp>
<bpm>0</bpm>
<rpm>0.00</rpm>
</extensions>
</trkpt>
<trkpt lat="63.993488312" lon="-19.060798645">
<ele>588.3</ele>
<time>2012-07-23T17:31:57Z</time>
<speed>0.860000</speed>
<extensions>
<speed>0.9</speed>
<temp>0.00</temp>
<bpm>0</bpm>
<rpm>0.00</rpm>
</extensions>
</trkpt>
<trkpt lat="63.992073059" lon="-19.059284210">
<ele>588.6</ele>
<time>2012-07-23T17:33:57Z</time>
<speed>1.710000</speed>
<extensions>
<speed>1.7</speed>
<temp>0.00</temp>
<bpm>0</bpm>
<rpm>0.00</rpm>
</extensions>
</trkpt>
<trkpt lat="63.990856171" lon="-19.060394287">
<ele>590.1</ele>
<time>2012-07-23T17:35:42Z</time>
<speed>1.580000</speed>
<extensions>
<speed>1.6</speed>
<temp>0.00</temp>
<bpm>0</bpm>
<rpm>0.00</rpm>
</extensions>
</trkpt>
<trkpt lat="63.990520477" lon="-19.060174942">
<ele>591.4</ele>
<time>2012-07-23T17:37:37Z</time>
<speed>0.130000</speed>
<extensions>
<speed>0.1</speed>
<temp>0.00</temp>
<bpm>0</bpm>
<rpm>0.00</rpm>
</extensions>
</trkpt>
<trkpt lat="63.990634918" lon="-19.060060501">
<ele>591.0</ele>
<time>2012-07-23T17:38:27Z</time>
<speed>0.210000</speed>
<extensions>
<speed>0.2</speed>
<temp>0.00</temp>
<bpm>0</bpm>
<rpm>0.00</rpm>
</extensions>
</trkpt>
</trkseg>
</trk>
</gpx>